Sfax Thyna International Airport

DTTX · Sfax, Tunisie

METAR anciennes DTTX · Aéroport International de Sfax–Thyna

Tu vois ci-dessous les METAR des derniers jours. Sélectionne une année pour parcourir les METAR plus anciens, à partir de l'année 2007.

25 juillet 2024

Temps Code Temps Temp. Vue Base cloud Vent METAR/SPECI
20:00
V
29 °C 10 km+ - 100° 100° 8 kt METAR DTTX 251900Z 10008KT CAVOK 29/22 Q1010
19:00
V
29 °C 10 km+ - 120° 120° 10 kt METAR DTTX 251800Z 12010KT CAVOK 29/20 Q1009
18:00
V
30 °C 10 km+ - 100° 100° 10 kt METAR DTTX 251700Z 10010KT CAVOK 30/20 Q1009
17:00
V
31 °C 10 km+ - 110° 110° 11 kt METAR DTTX 251600Z 11011KT 080V140 CAVOK 31/19 Q1009
16:00
V
31 °C 10 km+ - 110° 110° 11 kt METAR DTTX 251500Z 11011KT 070V140 CAVOK 31/20 Q1010
15:00
V
32 °C 10 km+ - 100° 100° 10 kt METAR DTTX 251400Z 10010KT 080V140 CAVOK 32/20 Q1010
14:00
V
33 °C 10 km+ - 090° 090° 9 kt METAR DTTX 251300Z 09009KT 050V120 CAVOK 33/17 Q1010
13:00
V
33 °C 10 km+ - 110° 110° 10 kt METAR DTTX 251200Z 11010KT CAVOK 33/17 Q1010
12:00
V
33 °C 10 km+ - 110° 110° 8 kt METAR DTTX 251100Z 11008KT 070V150 CAVOK 33/17 Q1011
11:00
V
34 °C 10 km+ - 320° 320° 4 kt METAR DTTX 251000Z 32004KT 270V040 CAVOK 34/10 Q1011
10:00
V
33 °C 10 km+ - 360° 360° 4 kt METAR DTTX 250900Z 36004KT 320V050 CAVOK 33/12 Q1012
09:00
V
32 °C 10 km+ - 340° 340° 4 kt METAR DTTX 250800Z 34004KT 270V030 CAVOK 32/13 Q1012
08:00
V
30 °C 10 km+ - 300° 300° 5 kt METAR DTTX 250700Z 30005KT 250V330 CAVOK 30/16 Q1012
07:00
V
27 °C 10 km+ - 250° 250° 6 kt METAR DTTX 250600Z 25006KT CAVOK 27/19 Q1012
06:00
V
24 °C 10 km+ - 280° 280° 4 kt METAR DTTX 250500Z 28004KT CAVOK 24/20 Q1011
05:00
V
24 °C 10 km+ - 260° 260° 5 kt METAR DTTX 250400Z 26005KT CAVOK 24/20 Q1011
03:00
V
26 °C 10 km+ - 280° 280° 4 kt METAR DTTX 250200Z 28004KT CAVOK 26/21 Q1012
02:00
V
27 °C 10 km+ - 290° 290° 3 kt METAR DTTX 250100Z 29003KT CAVOK 27/23 Q1012
01:00
V
27 °C 10 km+ - 240° 240° 4 kt METAR DTTX 250000Z 24004KT CAVOK 27/23 Q1013
00:00
V
27 °C 10 km+ - 230° 230° 4 kt METAR DTTX 242300Z 23004KT CAVOK 27/23 Q1013

24 juillet 2024

Temps Code Temps Temp. Vue Base cloud Vent METAR/SPECI
23:00
V
28 °C 10 km+ - 190° 190° 3 kt METAR DTTX 242200Z 19003KT CAVOK 28/22 Q1013
22:00
V
28 °C 10 km+ - 080° 080° 3 kt METAR DTTX 242100Z 08003KT CAVOK 28/22 Q1013
21:00
V
28 °C 10 km+ - 110° 110° 4 kt METAR DTTX 242000Z 11004KT CAVOK 28/23 Q1013
20:00
V
28 °C 10 km+ - 110° 110° 5 kt METAR DTTX 241900Z 11005KT CAVOK 28/23 Q1013
19:00
V
29 °C 10 km+ - 130° 130° 7 kt METAR DTTX 241800Z 13007KT CAVOK 29/23 Q1012
18:00
V
30 °C 10 km+ - 150° 150° 8 kt METAR DTTX 241700Z 15008KT CAVOK 30/22 Q1012
17:00
V
31 °C 10 km+ - 140° 140° 7 kt METAR DTTX 241600Z 14007KT 100V180 CAVOK 31/21 Q1012
16:00
V
31 °C 10 km+ - 100° 100° 10 kt METAR DTTX 241500Z 10010KT CAVOK 31/23 Q1013
14:00
V
31 °C 10 km+ - 090° 090° 9 kt METAR DTTX 241300Z 09009KT 060V140 9999 FEW020 31/22 Q1014
13:00
V
32 °C 10 km+ - 110° 110° 10 kt METAR DTTX 241200Z 11010KT 080V140 9999 FEW020 32/21 Q1014
12:00
V
34 °C 10 km+ - 020° 020° 8 kt METAR DTTX 241100Z 02008KT 340V050 9999 R15///// FEW020 34/14 Q1014
11:00
V
32 °C 10 km+ - 340° 340° 10 kt METAR DTTX 241000Z 34010KT 300V020 9999 FEW020 32/14 Q1015
10:00
V
31 °C 10 km+ - 340° 340° 11 kt METAR DTTX 240900Z 34011KT 310V010 9999 FEW020 31/15 Q1015
09:00
V
30 °C 10 km+ - 330° 330° 11 kt METAR DTTX 240800Z 33011KT 9999 FEW020 30/16 Q1015
08:00
V
28 °C 10 km+ - 340° 340° 13 kt METAR DTTX 240700Z 34013KT 9999 FEW020 28/16 Q1015
07:00
V
26 °C 10 km+ - 340° 340° 12 kt METAR DTTX 240600Z 34012KT 9999 FEW020 26/15 Q1015
06:00
V
25 °C 10 km+ - 330° 330° 9 kt METAR DTTX 240500Z 33009KT 9999 FEW020 25/15 Q1015
05:00
V
26 °C 10 km+ - 330° 330° 7 kt METAR DTTX 240400Z 33007KT 9999 FEW020 26/15 Q1014
04:00
V
26 °C 10 km+ - 330° 330° 9 kt METAR DTTX 240300Z 33009KT 9999 FEW020 26/14 Q1014
03:00
V
27 °C 10 km+ - 330° 330° 10 kt METAR DTTX 240200Z 33010KT 9999 FEW020 27/14 Q1014
02:00
V
27 °C 10 km+ - 320° 320° 8 kt METAR DTTX 240100Z 32008KT 9999 FEW020 27/16 Q1015
01:00
V
28 °C 10 km+ - 320° 320° 7 kt METAR DTTX 240000Z 32007KT 9999 FEW020 28/16 Q1016
00:00
V
29 °C 10 km+ - 330° 330° 10 kt METAR DTTX 232300Z 33010KT 9999 R15/2000 FEW020 29/18 Q1016

23 juillet 2024

Temps Code Temps Temp. Vue Base cloud Vent METAR/SPECI
23:00
V
28 °C 10 km+ - 270° 270° 8 kt METAR DTTX 232200Z 27008KT 9999 FEW020 28/23 Q1016
22:00
V
30 °C 10 km+ - 300° 300° 5 kt METAR DTTX 232100Z 30005KT 9999 FEW020 30/21 Q1016
21:00
V
30 °C 10 km+ - 330° 330° 6 kt METAR DTTX 232000Z 33006KT 300V010 9999 R15/2000 FEW020 30/20 Q1015
20:00
V
30 °C 10 km+ - 070° 070° 6 kt METAR DTTX 231900Z 07006KT 9999 R15///// FEW020 30/21 Q1014
19:00
V
30 °C 10 km+ - 100° 100° 7 kt METAR DTTX 231800Z 10007KT 070V140 9999 R15///// FEW020 30/22 Q1014
18:00
V
31 °C 10 km+ - 130° 130° 11 kt METAR DTTX 231700Z 13011KT 9999 FEW020 31/22 Q1014
17:00
V
31 °C 10 km+ - 130° 130° 10 kt METAR DTTX 231600Z 13010KT 100V160 9999 R15///// FEW020 31/22 Q1014
16:00
V
32 °C 10 km+ - 120° 120° 11 kt METAR DTTX 231500Z 12011KT 9999 FEW020 32/22 Q1014
15:00
V
32 °C 10 km+ - 100° 100° 11 kt METAR DTTX 231400Z 10011KT 070V130 9999 FEW020 32/22 Q1015
14:00
V
32 °C 10 km+ - 080° 080° 8 kt METAR DTTX 231300Z 08008KT 340V150 9999 FEW020 32/21 Q1015
13:00
V
34 °C 10 km+ - 320° 320° 14 kt METAR DTTX 231200Z 32014KT 290V360 9999 FEW020 34/16 Q1015
12:00
V
32 °C 10 km+ - 340° 340° 14 kt METAR DTTX 231100Z 34014KT 310V010 CAVOK 32/17 Q1016
11:00
V
32 °C 10 km+ - 330° 330° 11 - 21 kt METAR DTTX 231000Z 33011G21KT CAVOK 32/18 Q1016
10:00
V
30 °C 10 km+ - 340° 340° 15 kt METAR DTTX 230900Z 34015KT CAVOK 30/17 Q1016
09:00
V
29 °C 10 km+ - 330° 330° 14 kt METAR DTTX 230800Z 33014KT 300V360 CAVOK 29/17 Q1016
08:00
V
28 °C 10 km+ - 330° 330° 14 kt METAR DTTX 230700Z 33014KT CAVOK 28/18 Q1016
07:00
V
26 °C 10 km+ - 310° 310° 5 kt METAR DTTX 230600Z 31005KT 270V340 CAVOK 26/17 Q1016
Signaler les modifications